createdAt,value
2023-04-19T00:01:24.961Z,98714.17
2023-04-19T00:03:54.465Z,98712.69
2023-04-19T00:06:24.055Z,98710.20
2023-04-19T00:08:53.736Z,98710.98
2023-04-19T00:11:22.760Z,98710.59
2023-04-19T00:13:51.906Z,98719.44
2023-04-19T00:16:22.084Z,98717.61
2023-04-19T00:18:51.355Z,98712.14
2023-04-19T00:21:20.442Z,98708.75
2023-04-19T00:23:49.603Z,98706.50
2023-04-19T00:26:18.980Z,98705.38
2023-04-19T00:28:48.107Z,98707.88
2023-04-19T00:31:17.420Z,98707.48
2023-04-19T00:33:46.940Z,98706.31
2023-04-19T00:36:16.233Z,98707.18
2023-04-19T00:38:45.218Z,98703.88
2023-04-19T00:41:14.057Z,98706.84
2023-04-19T00:43:43.251Z,98702.21
2023-04-19T00:46:12.216Z,98703.56
2023-04-19T00:48:41.360Z,98702.79
2023-04-19T00:51:11.106Z,98701.02
2023-04-19T00:53:41.962Z,98697.09
2023-04-19T00:56:12.434Z,98699.15
2023-04-19T00:58:41.828Z,98698.34
2023-04-19T01:01:11.464Z,98704.42
2023-04-19T01:03:41.250Z,98702.34
2023-04-19T01:06:10.817Z,98705.06
2023-04-19T01:08:40.852Z,98708.19
2023-04-19T01:11:10.247Z,98707.98
2023-04-19T01:13:40.271Z,98706.11
2023-04-19T01:16:09.901Z,98710.89
2023-04-19T01:18:41.128Z,98703.05
2023-04-19T01:21:10.675Z,98702.17
2023-04-19T01:23:40.232Z,98701.83
2023-04-19T01:26:09.585Z,98703.30
2023-04-19T01:28:38.775Z,98705.02
2023-04-19T01:31:08.413Z,98703.00
2023-04-19T01:33:37.935Z,98703.81
2023-04-19T01:36:08.139Z,98700.65
2023-04-19T01:38:37.637Z,98703.41
2023-04-19T01:41:08.568Z,98702.65
2023-04-19T01:43:37.954Z,98701.16
2023-04-19T01:46:06.896Z,98699.13
2023-04-19T01:48:35.805Z,98696.77
2023-04-19T01:51:04.897Z,98694.59
2023-04-19T01:53:34.010Z,98694.98
2023-04-19T01:56:03.175Z,98695.16
2023-04-19T01:58:32.188Z,98696.67
2023-04-19T02:01:00.958Z,98694.98
2023-04-19T02:03:30.084Z,98695.81
2023-04-19T02:05:59.297Z,98696.61
2023-04-19T02:08:28.115Z,98693.93
2023-04-19T02:10:57.200Z,98694.00
2023-04-19T02:13:26.220Z,98694.48
2023-04-19T02:15:55.557Z,98693.84
2023-04-19T02:18:24.496Z,98690.27
2023-04-19T02:20:53.725Z,98687.23
2023-04-19T02:23:23.063Z,98686.50
2023-04-19T02:25:52.219Z,98682.90
2023-04-19T02:28:21.479Z,98680.35
2023-04-19T02:30:50.509Z,98679.83
2023-04-19T02:33:19.495Z,98680.76
2023-04-19T02:35:48.902Z,98678.80
2023-04-19T02:38:18.574Z,98682.73
2023-04-19T02:40:47.711Z,98680.73
2023-04-19T02:43:17.204Z,98682.85
2023-04-19T02:45:46.577Z,98681.79
2023-04-19T02:48:15.987Z,98677.07
2023-04-19T02:50:45.321Z,98681.93
2023-04-19T02:53:14.448Z,98679.95
2023-04-19T02:55:44.097Z,98682.25
2023-04-19T02:58:14.027Z,98689.25
2023-04-19T03:00:44.196Z,98686.36
2023-04-19T03:03:13.802Z,98682.81
2023-04-19T03:05:42.683Z,98687.30
2023-04-19T03:08:12.778Z,98688.46
2023-04-19T03:10:43.262Z,98684.21
2023-04-19T03:13:12.478Z,98680.34
2023-04-19T03:15:41.360Z,98687.39
2023-04-19T03:18:10.448Z,98686.81
2023-04-19T03:20:39.801Z,98691.07
2023-04-19T03:23:08.664Z,98689.39
2023-04-19T03:25:37.717Z,98689.09
2023-04-19T03:28:06.646Z,98689.94
2023-04-19T03:30:35.905Z,98689.10
2023-04-19T03:33:04.936Z,98688.77
2023-04-19T03:35:33.882Z,98688.64
2023-04-19T03:38:03.014Z,98684.93
2023-04-19T03:40:34.407Z,98688.45
2023-04-19T03:43:03.586Z,98692.59
2023-04-19T03:45:32.409Z,98689.30
2023-04-19T03:48:02.979Z,98689.55
2023-04-19T03:50:32.734Z,98690.55
2023-04-19T03:53:01.972Z,98688.49
2023-04-19T03:55:32.571Z,98689.61
2023-04-19T03:58:01.627Z,98697.64
2023-04-19T04:00:31.910Z,98700.49
2023-04-19T04:03:01.633Z,98696.88
2023-04-19T04:05:31.505Z,98700.75
2023-04-19T04:08:00.820Z,98707.08
2023-04-19T04:10:30.761Z,98706.89
2023-04-19T04:12:59.812Z,98702.11
2023-04-19T04:15:29.344Z,98704.17
2023-04-19T04:17:58.734Z,98702.83
2023-04-19T04:20:28.351Z,98705.63
2023-04-19T04:22:57.951Z,98707.30
2023-04-19T04:25:29.408Z,98707.23
2023-04-19T04:27:58.754Z,98708.82
2023-04-19T04:30:29.061Z,98711.40
2023-04-19T04:33:01.829Z,98713.80
2023-04-19T04:35:31.000Z,98714.31
2023-04-19T04:38:00.524Z,98714.86
2023-04-19T04:40:30.050Z,98716.60
2023-04-19T04:43:01.348Z,98711.84
2023-04-19T04:45:30.139Z,98711.42
2023-04-19T04:47:59.616Z,98713.23
2023-04-19T04:50:29.267Z,98717.54
2023-04-19T04:52:58.366Z,98715.28
2023-04-19T04:55:27.642Z,98717.06
2023-04-19T04:57:56.929Z,98716.86
2023-04-19T05:00:26.251Z,98717.64
2023-04-19T05:02:55.229Z,98716.69
2023-04-19T05:05:24.490Z,98715.76
2023-04-19T05:07:53.352Z,98712.92
2023-04-19T05:10:22.103Z,98713.08
2023-04-19T05:12:50.951Z,98712.15
2023-04-19T05:15:20.090Z,98709.40
2023-04-19T05:17:49.123Z,98704.02
2023-04-19T05:20:18.489Z,98709.36
2023-04-19T05:22:47.721Z,98713.05
2023-04-19T05:25:17.077Z,98717.70
2023-04-19T05:27:46.002Z,98720.57
2023-04-19T05:30:15.368Z,98713.34
2023-04-19T05:32:44.891Z,98713.35
2023-04-19T05:35:14.280Z,98714.45
2023-04-19T05:37:43.553Z,98713.41
2023-04-19T05:40:14.310Z,98709.83
2023-04-19T05:42:44.525Z,98710.90
2023-04-19T05:45:16.099Z,98711.63
2023-04-19T05:47:45.088Z,98715.14
2023-04-19T05:50:18.204Z,98712.13
2023-04-19T05:52:48.049Z,98715.41
2023-04-19T05:55:18.469Z,98712.72
2023-04-19T05:57:48.388Z,98719.37
2023-04-19T06:00:18.243Z,98720.91
2023-04-19T06:02:47.493Z,98720.05
2023-04-19T06:05:16.933Z,98717.27
2023-04-19T06:07:54.662Z,98716.67
2023-04-19T06:10:37.156Z,98718.11
2023-04-19T06:13:17.767Z,98720.48
2023-04-19T06:15:49.444Z,98721.91
2023-04-19T06:18:20.381Z,98721.58
2023-04-19T06:20:49.734Z,98719.42
2023-04-19T06:23:19.469Z,98722.44
2023-04-19T06:25:52.349Z,98717.23
2023-04-19T06:28:22.455Z,98714.79
2023-04-19T06:30:51.979Z,98711.23
2023-04-19T06:33:21.680Z,98712.05
2023-04-19T06:35:50.930Z,98707.34
2023-04-19T06:38:19.794Z,98705.73
2023-04-19T06:40:48.581Z,98694.55
2023-04-19T06:43:17.725Z,98695.04
2023-04-19T06:45:47.262Z,98692.93
2023-04-19T06:48:16.207Z,98696.28
2023-04-19T06:50:46.497Z,98689.09
2023-04-19T06:53:15.840Z,98688.92
2023-04-19T06:55:45.792Z,98685.80
2023-04-19T06:58:15.527Z,98691.83
2023-04-19T07:00:44.236Z,98691.59
2023-04-19T07:03:13.743Z,98687.37
2023-04-19T07:05:42.474Z,98686.27
2023-04-19T07:08:11.517Z,98682.96
2023-04-19T07:10:40.447Z,98679.89
2023-04-19T07:13:09.425Z,98677.81
2023-04-19T07:15:38.569Z,98677.03
2023-04-19T07:18:07.792Z,98679.09
2023-04-19T07:20:36.670Z,98676.59
2023-04-19T07:23:05.963Z,98678.50
2023-04-19T07:25:34.943Z,98674.52
2023-04-19T07:28:04.130Z,98678.16
2023-04-19T07:30:33.306Z,98675.20
2023-04-19T07:33:04.835Z,98674.86
2023-04-19T07:35:33.920Z,98673.05
2023-04-19T07:38:03.643Z,98669.08
2023-04-19T07:40:33.386Z,98662.98
2023-04-19T07:43:02.480Z,98658.79
2023-04-19T07:45:32.259Z,98659.80
2023-04-19T07:48:01.263Z,98657.58
2023-04-19T07:50:30.519Z,98657.09
2023-04-19T07:52:59.915Z,98657.93
2023-04-19T07:55:29.344Z,98657.36
2023-04-19T07:57:58.301Z,98651.87
2023-04-19T08:00:27.267Z,98653.65
2023-04-19T08:02:57.710Z,98649.19
2023-04-19T08:05:28.091Z,98651.45
2023-04-19T08:07:57.850Z,98652.51
2023-04-19T08:10:29.311Z,98653.02
2023-04-19T08:13:05.732Z,98648.52
2023-04-19T08:18:08.034Z,98637.13
2023-04-19T08:20:37.837Z,98639.73
2023-04-19T08:23:20.700Z,98627.23
2023-04-19T08:25:53.480Z,98634.77
2023-04-19T08:28:22.112Z,98628.59
2023-04-19T08:30:51.690Z,98625.20
2023-04-19T08:33:21.616Z,98624.22
2023-04-19T08:35:51.289Z,98621.87
2023-04-19T08:38:20.998Z,98624.31
2023-04-19T08:40:55.506Z,98622.20
2023-04-19T08:43:29.807Z,98619.08
2023-04-19T08:46:00.098Z,98619.39
2023-04-19T08:48:31.120Z,98614.73
2023-04-19T08:51:05.420Z,98615.80
2023-04-19T08:53:36.472Z,98612.45
2023-04-19T08:56:18.155Z,98612.24
2023-04-19T08:59:11.651Z,98608.15
2023-04-19T09:01:46.382Z,98609.75
2023-04-19T09:06:47.513Z,98602.70
2023-04-19T09:09:37.066Z,98597.27
2023-04-19T09:12:19.094Z,98599.02
2023-04-19T09:17:21.653Z,98597.61
2023-04-19T09:19:51.086Z,98597.77
2023-04-19T09:22:22.184Z,98593.46
2023-04-19T09:27:31.771Z,98589.85
2023-04-19T09:30:03.139Z,98585.11
2023-04-19T09:32:47.860Z,98584.02
2023-04-19T09:35:17.535Z,98582.52
2023-04-19T09:38:06.319Z,98581.89
2023-04-19T09:40:36.393Z,98579.59
2023-04-19T09:43:32.912Z,98580.30
2023-04-19T09:45:55.928Z,98587.91
2023-04-19T09:48:25.051Z,98580.77
2023-04-19T09:51:05.868Z,98580.42
2023-04-19T09:53:41.676Z,98580.40
2023-04-19T09:56:13.148Z,98584.67
2023-04-19T09:58:50.006Z,98584.02
2023-04-19T10:01:21.524Z,98581.42
2023-04-19T10:03:52.634Z,98578.84
2023-04-19T10:08:57.826Z,98575.02
2023-04-19T10:11:32.158Z,98572.45
2023-04-19T10:14:04.681Z,98565.63
2023-04-19T10:16:35.682Z,98559.31
2023-04-19T10:19:10.041Z,98563.23
2023-04-19T10:21:42.935Z,98558.24
2023-04-19T10:24:14.447Z,98558.54
2023-04-19T10:27:15.076Z,98552.39
2023-04-19T10:30:05.060Z,98549.59
2023-04-19T10:32:43.968Z,98550.91
2023-04-19T10:35:25.303Z,98547.14
2023-04-19T10:38:13.694Z,98540.19
2023-04-19T10:40:52.437Z,98536.63
2023-04-19T10:43:22.973Z,98532.58
2023-04-19T10:45:52.784Z,98529.04
2023-04-19T10:48:31.306Z,98528.95
2023-04-19T10:51:04.748Z,98521.92
2023-04-19T10:53:55.041Z,98526.86
2023-04-19T10:57:00.857Z,98527.86
2023-04-19T10:59:41.119Z,98525.80
2023-04-19T11:02:33.064Z,98521.36
2023-04-19T11:05:03.350Z,98513.48
2023-04-19T11:07:39.032Z,98509.02
2023-04-19T11:10:09.360Z,98509.70
2023-04-19T11:12:42.848Z,98504.95
2023-04-19T11:15:12.556Z,98499.28
2023-04-19T11:17:42.917Z,98495.30
2023-04-19T11:20:13.119Z,98494.10
2023-04-19T11:22:47.145Z,98491.23
2023-04-19T11:25:21.416Z,98485.95
2023-04-19T11:27:53.647Z,98479.59
2023-04-19T11:30:29.763Z,98472.54
2023-04-19T11:32:59.477Z,98470.10
2023-04-19T11:35:33.891Z,98473.66
2023-04-19T11:38:05.153Z,98470.38
2023-04-19T11:40:34.314Z,98467.82
2023-04-19T11:43:05.879Z,98465.11
2023-04-19T11:45:39.730Z,98468.02
2023-04-19T11:48:18.854Z,98468.80
2023-04-19T11:50:50.221Z,98461.70
2023-04-19T11:53:22.168Z,98458.60
2023-04-19T11:55:59.832Z,98452.95
2023-04-19T11:58:32.674Z,98451.45
2023-04-19T12:01:21.635Z,98451.98
2023-04-19T12:03:57.029Z,98446.34
2023-04-19T12:06:29.227Z,98444.16
2023-04-19T12:08:59.294Z,98444.55
2023-04-19T12:11:45.165Z,98448.11
2023-04-19T12:14:17.100Z,98443.96
2023-04-19T12:16:47.182Z,98441.15
2023-04-19T12:19:19.352Z,98437.38
2023-04-19T12:21:49.001Z,98432.64
2023-04-19T12:24:18.072Z,98430.12
2023-04-19T12:26:59.175Z,98427.31
2023-04-19T12:29:29.855Z,98421.52
2023-04-19T12:31:59.101Z,98417.66
2023-04-19T12:34:28.570Z,98416.11
2023-04-19T12:36:57.806Z,98414.28
2023-04-19T12:39:28.593Z,98414.76
2023-04-19T12:41:58.139Z,98415.99
2023-04-19T12:44:29.020Z,98416.73
2023-04-19T12:46:58.826Z,98412.58
2023-04-19T12:49:29.278Z,98407.63
2023-04-19T12:51:59.025Z,98406.58
2023-04-19T12:54:28.657Z,98404.16
2023-04-19T12:57:00.320Z,98406.00
2023-04-19T12:59:31.104Z,98395.82
2023-04-19T13:02:01.896Z,98392.26
2023-04-19T13:04:32.057Z,98389.11
2023-04-19T13:07:01.715Z,98381.13
2023-04-19T13:09:31.584Z,98378.90
2023-04-19T13:12:01.277Z,98373.94
2023-04-19T13:14:32.728Z,98375.57
2023-04-19T13:17:02.558Z,98373.96
2023-04-19T13:19:33.016Z,98370.75
2023-04-19T13:22:02.973Z,98364.30
2023-04-19T13:24:32.475Z,98358.88
2023-04-19T13:27:02.874Z,98359.45
2023-04-19T13:29:33.026Z,98357.59
2023-04-19T13:32:03.405Z,98359.35
2023-04-19T13:34:34.187Z,98356.70
2023-04-19T13:37:04.159Z,98354.48
2023-04-19T13:39:34.713Z,98348.90
2023-04-19T13:42:05.145Z,98346.76
2023-04-19T13:44:35.881Z,98342.55
2023-04-19T13:47:06.661Z,98341.39
2023-04-19T13:49:36.451Z,98338.05
2023-04-19T13:52:06.734Z,98337.86
2023-04-19T13:54:36.246Z,98336.77
2023-04-19T13:57:06.581Z,98328.10
2023-04-19T13:59:36.424Z,98325.86
2023-04-19T14:02:07.573Z,98320.70
2023-04-19T14:04:38.360Z,98319.62
2023-04-19T14:07:08.971Z,98318.42
2023-04-19T14:09:38.422Z,98310.39
2023-04-19T14:12:10.822Z,98303.58
2023-04-19T14:14:40.467Z,98308.78
2023-04-19T14:17:10.802Z,98307.71
2023-04-19T14:19:40.536Z,98304.52
2023-04-19T14:22:09.830Z,98303.73
2023-04-19T14:24:40.160Z,98298.63
2023-04-19T14:27:11.787Z,98300.05
2023-04-19T14:29:43.267Z,98295.27
2023-04-19T14:32:25.219Z,98295.31
2023-04-19T14:34:56.872Z,98285.35
2023-04-19T14:37:27.549Z,98289.17
2023-04-19T14:39:58.212Z,98284.27
2023-04-19T14:42:28.068Z,98292.62
2023-04-19T14:44:59.168Z,98294.85
2023-04-19T14:47:28.985Z,98296.13
2023-04-19T14:50:02.085Z,98288.46
2023-04-19T14:52:33.846Z,98290.19
2023-04-19T14:55:04.620Z,98291.10
2023-04-19T14:57:34.146Z,98288.55
2023-04-19T15:00:03.433Z,98291.04
2023-04-19T15:02:34.239Z,98299.98
2023-04-19T15:05:04.509Z,98296.22
2023-04-19T15:07:35.640Z,98294.94
2023-04-19T15:10:07.339Z,98295.95
2023-04-19T15:12:36.684Z,98297.27
2023-04-19T15:15:08.767Z,98291.14
2023-04-19T15:17:38.921Z,98286.91
2023-04-19T15:20:09.690Z,98287.52
2023-04-19T15:22:39.399Z,98288.80
2023-04-19T15:25:09.408Z,98289.55
2023-04-19T15:27:38.614Z,98292.52
2023-04-19T15:30:09.435Z,98292.91
2023-04-19T15:32:39.294Z,98293.73
2023-04-19T15:35:09.129Z,98296.45
2023-04-19T15:37:39.767Z,98311.52
2023-04-19T15:40:10.289Z,98311.31
2023-04-19T15:42:39.448Z,98313.08
2023-04-19T15:45:10.339Z,98312.58
2023-04-19T15:47:40.312Z,98312.59
2023-04-19T15:50:09.918Z,98311.98
2023-04-19T15:52:38.859Z,98313.56
2023-04-19T15:55:08.776Z,98317.61
2023-04-19T15:57:37.983Z,98323.27
2023-04-19T16:00:09.901Z,98318.35
2023-04-19T16:02:39.855Z,98315.63
2023-04-19T16:05:09.461Z,98318.02
2023-04-19T16:07:38.834Z,98318.95
2023-04-19T16:10:08.708Z,98316.95
2023-04-19T16:12:38.558Z,98315.69
2023-04-19T16:15:09.660Z,98316.38
2023-04-19T16:17:39.940Z,98319.90
2023-04-19T16:20:10.196Z,98314.77
2023-04-19T16:22:40.808Z,98310.23
2023-04-19T16:25:14.929Z,98312.12
2023-04-19T16:27:49.069Z,98322.69
2023-04-19T16:30:20.800Z,98321.05
2023-04-19T16:32:51.418Z,98326.89
2023-04-19T16:35:21.322Z,98328.23
2023-04-19T16:37:51.390Z,98330.74
2023-04-19T16:40:22.804Z,98337.17
2023-04-19T16:42:51.892Z,98333.88
2023-04-19T16:45:21.631Z,98336.34
2023-04-19T16:47:51.207Z,98335.77
2023-04-19T16:50:20.806Z,98335.34
2023-04-19T16:52:49.961Z,98340.50
2023-04-19T16:55:19.597Z,98346.39
2023-04-19T16:57:48.472Z,98344.56
2023-04-19T17:00:18.287Z,98352.63
2023-04-19T17:02:47.380Z,98354.27
2023-04-19T17:05:16.629Z,98358.57
2023-04-19T17:07:45.365Z,98355.22
2023-04-19T17:10:14.325Z,98355.02
2023-04-19T17:12:44.255Z,98357.71
2023-04-19T17:15:13.303Z,98357.37
2023-04-19T17:17:43.496Z,98364.53
2023-04-19T17:20:14.046Z,98368.57
2023-04-19T17:22:43.637Z,98371.32
2023-04-19T17:25:12.835Z,98377.77
2023-04-19T17:27:42.098Z,98382.60
2023-04-19T17:30:11.036Z,98383.98
2023-04-19T17:32:41.687Z,98389.52
2023-04-19T17:35:11.266Z,98393.60
2023-04-19T17:37:40.989Z,98396.45
2023-04-19T17:40:11.197Z,98398.92
2023-04-19T17:42:40.607Z,98401.80
2023-04-19T17:45:11.667Z,98403.80
2023-04-19T17:47:41.997Z,98406.04
2023-04-19T17:50:13.184Z,98412.19
2023-04-19T17:52:42.427Z,98411.55
2023-04-19T17:55:11.539Z,98417.23
2023-04-19T17:57:40.666Z,98417.95
2023-04-19T18:00:11.668Z,98423.13
2023-04-19T18:02:41.588Z,98423.76
2023-04-19T18:05:14.195Z,98431.48
2023-04-19T18:07:43.883Z,98432.13
2023-04-19T18:10:12.977Z,98432.04
2023-04-19T18:12:41.955Z,98434.58
2023-04-19T18:15:12.036Z,98438.63
2023-04-19T18:17:41.493Z,98438.56
2023-04-19T18:20:13.677Z,98446.83
2023-04-19T18:22:43.732Z,98453.67
2023-04-19T18:25:13.874Z,98454.44
2023-04-19T18:27:43.629Z,98455.13
2023-04-19T18:30:13.454Z,98459.63
2023-04-19T18:32:44.010Z,98463.14
2023-04-19T18:35:14.545Z,98466.66
2023-04-19T18:37:44.504Z,98471.55
2023-04-19T18:40:14.969Z,98473.23
2023-04-19T18:42:45.350Z,98473.05
2023-04-19T18:45:16.742Z,98474.48
2023-04-19T18:47:47.970Z,98480.19
2023-04-19T18:50:20.759Z,98480.91
2023-04-19T18:52:51.068Z,98482.81
2023-04-19T18:55:20.887Z,98482.50
2023-04-19T18:57:50.666Z,98482.84
2023-04-19T19:00:22.165Z,98484.70
2023-04-19T19:02:53.393Z,98490.46
2023-04-19T19:05:24.216Z,98497.57
2023-04-19T19:07:54.949Z,98509.61
2023-04-19T19:10:57.158Z,98509.36
2023-04-19T19:13:17.808Z,98516.41
2023-04-19T19:15:57.405Z,98511.74
2023-04-19T19:18:31.955Z,98515.57
2023-04-19T19:21:11.412Z,98521.14
2023-04-19T19:23:43.478Z,98525.04
2023-04-19T19:26:14.341Z,98527.34
2023-04-19T19:28:47.308Z,98525.09
2023-04-19T19:31:19.439Z,98521.86
2023-04-19T19:34:06.023Z,98521.17
2023-04-19T19:36:41.371Z,98523.22
2023-04-19T19:39:11.980Z,98522.80
2023-04-19T19:44:16.461Z,98520.58
2023-04-19T19:46:51.183Z,98525.12
2023-04-19T19:49:26.222Z,98521.30
2023-04-19T19:52:02.478Z,98520.99
2023-04-19T19:54:34.589Z,98516.98
2023-04-19T19:58:10.363Z,98511.77
2023-04-19T20:05:19.957Z,98507.33
2023-04-19T20:08:01.791Z,98505.80
2023-04-19T20:10:34.433Z,98500.81
2023-04-19T20:13:07.072Z,98496.06
2023-04-19T20:15:42.042Z,98496.66
2023-04-19T20:18:12.296Z,98496.50
2023-04-19T20:20:42.758Z,98500.94
2023-04-19T20:23:16.286Z,98500.17
2023-04-19T20:25:54.256Z,98497.05
2023-04-19T20:28:29.145Z,98491.28
2023-04-19T20:31:00.253Z,98492.39
2023-04-19T20:33:30.684Z,98493.30
2023-04-19T20:36:06.058Z,98498.17
2023-04-19T20:38:38.853Z,98499.61
2023-04-19T20:41:09.665Z,98492.02
2023-04-19T20:43:41.056Z,98493.45
2023-04-19T20:46:11.453Z,98490.98
2023-04-19T20:48:44.322Z,98491.80
2023-04-19T20:51:15.741Z,98491.09
2023-04-19T20:53:45.210Z,98491.90
2023-04-19T20:56:15.536Z,98491.95
2023-04-19T20:58:46.364Z,98488.37
2023-04-19T21:01:17.943Z,98482.64
2023-04-19T21:03:47.923Z,98487.02
2023-04-19T21:06:17.661Z,98488.56
2023-04-19T21:08:49.330Z,98488.95
2023-04-19T21:11:19.840Z,98492.76
2023-04-19T21:13:49.504Z,98496.08
2023-04-19T21:16:18.819Z,98498.85
2023-04-19T21:18:48.198Z,98500.91
2023-04-19T21:21:17.270Z,98501.91
2023-04-19T21:23:46.771Z,98501.24
2023-04-19T21:26:16.295Z,98499.27
2023-04-19T21:28:46.075Z,98492.32
2023-04-19T21:31:15.769Z,98491.23
2023-04-19T21:33:45.137Z,98490.07
2023-04-19T21:36:14.639Z,98493.16
2023-04-19T21:38:44.624Z,98497.23
2023-04-19T21:41:16.208Z,98500.81
2023-04-19T21:43:46.345Z,98503.77
2023-04-19T21:46:16.727Z,98508.41
2023-04-19T21:48:46.470Z,98505.64
2023-04-19T21:51:15.336Z,98505.08
2023-04-19T21:53:44.412Z,98506.77
2023-04-19T21:56:13.876Z,98504.45
2023-04-19T21:58:43.056Z,98506.08
2023-04-19T22:01:12.235Z,98508.25
2023-04-19T22:03:41.563Z,98511.02
2023-04-19T22:06:10.696Z,98514.51
2023-04-19T22:08:40.815Z,98517.05
2023-04-19T22:11:10.307Z,98515.95
2023-04-19T22:13:39.521Z,98515.34
2023-04-19T22:16:09.331Z,98511.58
2023-04-19T22:18:41.779Z,98510.73
2023-04-19T22:21:11.998Z,98511.44
2023-04-19T22:23:41.324Z,98510.42
2023-04-19T22:26:10.968Z,98509.02
2023-04-19T22:28:41.330Z,98508.59
2023-04-19T22:31:10.262Z,98513.38
2023-04-19T22:33:39.596Z,98513.13
2023-04-19T22:36:09.326Z,98516.58
2023-04-19T22:38:38.292Z,98513.19
2023-04-19T22:41:06.977Z,98516.29
2023-04-19T22:43:36.289Z,98516.68
2023-04-19T22:46:05.787Z,98518.73
2023-04-19T22:48:35.467Z,98517.84
2023-04-19T22:51:05.208Z,98515.81
2023-04-19T22:53:34.569Z,98516.59
2023-04-19T22:56:04.130Z,98514.02
2023-04-19T22:58:34.555Z,98512.03
2023-04-19T23:01:04.593Z,98514.30
2023-04-19T23:03:34.349Z,98508.76
2023-04-19T23:06:04.722Z,98507.17
2023-04-19T23:08:34.412Z,98500.82
2023-04-19T23:11:04.027Z,98502.92
2023-04-19T23:13:34.762Z,98502.58
2023-04-19T23:16:04.253Z,98499.91
2023-04-19T23:18:33.628Z,98501.58
2023-04-19T23:21:03.474Z,98501.35
2023-04-19T23:23:33.227Z,98501.48
2023-04-19T23:26:02.546Z,98497.09
2023-04-19T23:28:32.373Z,98500.09
2023-04-19T23:31:02.301Z,98496.52
2023-04-19T23:33:31.854Z,98493.52
2023-04-19T23:36:01.743Z,98493.09
2023-04-19T23:38:32.486Z,98492.67
2023-04-19T23:41:01.844Z,98488.91
2023-04-19T23:43:31.065Z,98490.77
2023-04-19T23:46:00.413Z,98484.27
2023-04-19T23:48:29.962Z,98484.27
2023-04-19T23:50:58.973Z,98484.42
2023-04-19T23:53:29.041Z,98483.73
2023-04-19T23:55:57.921Z,98479.42
2023-04-19T23:58:27.415Z,98474.96
